sensor_id;sensor_type;location;lat;lon;timestamp;temperature;humidity
45207;DHT22;30950;53.086;21.576;2023-01-16T00:01:56;4.60;99.90
45207;DHT22;30950;53.086;21.576;2023-01-16T00:04:24;4.60;99.90
45207;DHT22;30950;53.086;21.576;2023-01-16T00:06:51;4.60;99.90
45207;DHT22;30950;53.086;21.576;2023-01-16T00:09:19;4.60;99.90
45207;DHT22;30950;53.086;21.576;2023-01-16T00:11:46;4.60;99.90
45207;DHT22;30950;53.086;21.576;2023-01-16T00:14:14;4.60;99.90
45207;DHT22;30950;53.086;21.576;2023-01-16T00:16:41;4.60;99.90
45207;DHT22;30950;53.086;21.576;2023-01-16T00:19:08;4.60;99.90
45207;DHT22;30950;53.086;21.576;2023-01-16T00:21:35;4.60;99.90
45207;DHT22;30950;53.086;21.576;2023-01-16T00:24:03;4.60;99.90
45207;DHT22;30950;53.086;21.576;2023-01-16T00:26:33;4.50;99.90
45207;DHT22;30950;53.086;21.576;2023-01-16T00:29:00;4.50;99.90
45207;DHT22;30950;53.086;21.576;2023-01-16T00:31:29;4.50;99.90
45207;DHT22;30950;53.086;21.576;2023-01-16T00:33:56;4.50;99.90
45207;DHT22;30950;53.086;21.576;2023-01-16T00:36:23;4.50;99.90
45207;DHT22;30950;53.086;21.576;2023-01-16T00:38:51;4.50;99.90
45207;DHT22;30950;53.086;21.576;2023-01-16T00:41:18;4.50;99.90
45207;DHT22;30950;53.086;21.576;2023-01-16T00:43:45;4.40;99.90
45207;DHT22;30950;53.086;21.576;2023-01-16T00:46:13;4.40;99.90
45207;DHT22;30950;53.086;21.576;2023-01-16T00:48:40;4.40;99.90
45207;DHT22;30950;53.086;21.576;2023-01-16T00:51:07;4.40;99.90
45207;DHT22;30950;53.086;21.576;2023-01-16T00:53:34;4.40;99.90
45207;DHT22;30950;53.086;21.576;2023-01-16T00:56:02;4.40;99.90
45207;DHT22;30950;53.086;21.576;2023-01-16T00:58:29;4.40;99.90
45207;DHT22;30950;53.086;21.576;2023-01-16T01:00:56;4.40;99.90
45207;DHT22;30950;53.086;21.576;2023-01-16T01:03:24;4.30;99.90
45207;DHT22;30950;53.086;21.576;2023-01-16T01:05:51;4.30;99.90
45207;DHT22;30950;53.086;21.576;2023-01-16T01:08:18;4.30;99.90
45207;DHT22;30950;53.086;21.576;2023-01-16T01:10:46;4.30;99.90
45207;DHT22;30950;53.086;21.576;2023-01-16T01:13:13;4.30;99.90
45207;DHT22;30950;53.086;21.576;2023-01-16T01:15:40;4.30;99.90
45207;DHT22;30950;53.086;21.576;2023-01-16T01:18:08;4.20;99.90
45207;DHT22;30950;53.086;21.576;2023-01-16T01:20:39;4.20;99.90
45207;DHT22;30950;53.086;21.576;2023-01-16T01:23:07;4.60;99.90
45207;DHT22;30950;53.086;21.576;2023-01-16T01:25:37;4.20;99.90
45207;DHT22;30950;53.086;21.576;2023-01-16T01:28:05;4.10;99.90
45207;DHT22;30950;53.086;21.576;2023-01-16T01:30:32;4.10;99.90
45207;DHT22;30950;53.086;21.576;2023-01-16T01:32:59;4.10;99.90
45207;DHT22;30950;53.086;21.576;2023-01-16T01:35:26;4.00;99.90
45207;DHT22;30950;53.086;21.576;2023-01-16T01:37:53;4.00;99.90
45207;DHT22;30950;53.086;21.576;2023-01-16T01:40:21;4.00;99.90
45207;DHT22;30950;53.086;21.576;2023-01-16T01:42:48;4.00;99.90
45207;DHT22;30950;53.086;21.576;2023-01-16T01:53:25;3.90;99.90
45207;DHT22;30950;53.086;21.576;2023-01-16T01:55:52;3.90;99.90
45207;DHT22;30950;53.086;21.576;2023-01-16T01:58:21;4.10;99.90
45207;DHT22;30950;53.086;21.576;2023-01-16T02:00:56;3.80;99.90
45207;DHT22;30950;53.086;21.576;2023-01-16T02:06:18;3.80;99.90
45207;DHT22;30950;53.086;21.576;2023-01-16T02:08:48;3.70;99.90
45207;DHT22;30950;53.086;21.576;2023-01-16T02:11:40;3.80;99.90
45207;DHT22;30950;53.086;21.576;2023-01-16T02:14:12;3.70;99.90
45207;DHT22;30950;53.086;21.576;2023-01-16T02:16:40;3.70;99.90
45207;DHT22;30950;53.086;21.576;2023-01-16T02:41:26;3.50;99.90
45207;DHT22;30950;53.086;21.576;2023-01-16T02:44:04;3.50;99.90
45207;DHT22;30950;53.086;21.576;2023-01-16T02:46:45;3.50;99.90
45207;DHT22;30950;53.086;21.576;2023-01-16T02:49:30;3.50;99.90
45207;DHT22;30950;53.086;21.576;2023-01-16T02:52:13;3.50;99.90
45207;DHT22;30950;53.086;21.576;2023-01-16T02:55:09;3.40;99.90
45207;DHT22;30950;53.086;21.576;2023-01-16T02:57:42;3.40;99.90
45207;DHT22;30950;53.086;21.576;2023-01-16T03:00:10;3.40;99.90
45207;DHT22;30950;53.086;21.576;2023-01-16T03:02:39;3.40;99.90
45207;DHT22;30950;53.086;21.576;2023-01-16T03:05:07;3.30;99.90
45207;DHT22;30950;53.086;21.576;2023-01-16T03:15:52;3.30;99.90
45207;DHT22;30950;53.086;21.576;2023-01-16T03:18:41;3.20;99.90
45207;DHT22;30950;53.086;21.576;2023-01-16T03:21:35;3.20;99.90
45207;DHT22;30950;53.086;21.576;2023-01-16T03:26:56;3.20;99.90
45207;DHT22;30950;53.086;21.576;2023-01-16T03:29:41;3.20;99.90
45207;DHT22;30950;53.086;21.576;2023-01-16T03:32:50;3.20;99.90
45207;DHT22;30950;53.086;21.576;2023-01-16T03:35:16;3.10;99.90
45207;DHT22;30950;53.086;21.576;2023-01-16T03:37:49;3.90;99.90
45207;DHT22;30950;53.086;21.576;2023-01-16T03:40:22;3.10;99.90
45207;DHT22;30950;53.086;21.576;2023-01-16T03:42:56;3.10;99.90
45207;DHT22;30950;53.086;21.576;2023-01-16T03:45:32;3.10;99.90
45207;DHT22;30950;53.086;21.576;2023-01-16T03:48:05;3.10;99.90
45207;DHT22;30950;53.086;21.576;2023-01-16T03:50:34;3.10;99.90
45207;DHT22;30950;53.086;21.576;2023-01-16T03:53:08;3.10;99.90
45207;DHT22;30950;53.086;21.576;2023-01-16T03:55:46;3.10;99.90
45207;DHT22;30950;53.086;21.576;2023-01-16T03:58:27;3.00;99.90
45207;DHT22;30950;53.086;21.576;2023-01-16T04:03:50;3.10;99.90
45207;DHT22;30950;53.086;21.576;2023-01-16T04:06:32;2.90;99.90
45207;DHT22;30950;53.086;21.576;2023-01-16T04:09:05;3.00;99.90
45207;DHT22;30950;53.086;21.576;2023-01-16T04:11:36;3.00;99.90
45207;DHT22;30950;53.086;21.576;2023-01-16T04:14:09;2.90;99.90
45207;DHT22;30950;53.086;21.576;2023-01-16T04:16:38;3.00;99.90
45207;DHT22;30950;53.086;21.576;2023-01-16T04:19:09;3.00;99.90
45207;DHT22;30950;53.086;21.576;2023-01-16T04:21:42;3.00;99.90
45207;DHT22;30950;53.086;21.576;2023-01-16T04:24:10;2.90;99.90
45207;DHT22;30950;53.086;21.576;2023-01-16T04:26:38;3.00;99.90
45207;DHT22;30950;53.086;21.576;2023-01-16T04:29:05;3.10;99.90
45207;DHT22;30950;53.086;21.576;2023-01-16T04:31:33;3.70;99.90
45207;DHT22;30950;53.086;21.576;2023-01-16T04:34:00;3.00;99.90
45207;DHT22;30950;53.086;21.576;2023-01-16T04:36:27;2.90;99.90
45207;DHT22;30950;53.086;21.576;2023-01-16T04:38:54;3.00;99.90
45207;DHT22;30950;53.086;21.576;2023-01-16T04:41:22;2.90;99.90
45207;DHT22;30950;53.086;21.576;2023-01-16T04:44:06;2.90;99.90
45207;DHT22;30950;53.086;21.576;2023-01-16T04:46:35;2.90;99.90
45207;DHT22;30950;53.086;21.576;2023-01-16T04:49:04;2.90;99.90
45207;DHT22;30950;53.086;21.576;2023-01-16T04:51:33;2.90;99.90
45207;DHT22;30950;53.086;21.576;2023-01-16T04:54:00;2.90;99.90
45207;DHT22;30950;53.086;21.576;2023-01-16T04:56:27;2.90;99.90
45207;DHT22;30950;53.086;21.576;2023-01-16T04:58:55;2.90;99.90
45207;DHT22;30950;53.086;21.576;2023-01-16T05:01:23;2.90;99.90
45207;DHT22;30950;53.086;21.576;2023-01-16T05:03:50;2.90;99.90
45207;DHT22;30950;53.086;21.576;2023-01-16T05:06:18;2.90;99.90
45207;DHT22;30950;53.086;21.576;2023-01-16T05:08:45;2.80;99.90
45207;DHT22;30950;53.086;21.576;2023-01-16T05:11:12;2.80;99.90
45207;DHT22;30950;53.086;21.576;2023-01-16T05:13:39;2.80;99.90
45207;DHT22;30950;53.086;21.576;2023-01-16T05:16:07;2.80;99.90
45207;DHT22;30950;53.086;21.576;2023-01-16T05:18:34;2.80;99.90
45207;DHT22;30950;53.086;21.576;2023-01-16T05:21:01;2.80;99.90
45207;DHT22;30950;53.086;21.576;2023-01-16T05:23:29;2.80;99.90
45207;DHT22;30950;53.086;21.576;2023-01-16T05:25:57;2.80;99.90
45207;DHT22;30950;53.086;21.576;2023-01-16T05:28:24;2.80;99.90
45207;DHT22;30950;53.086;21.576;2023-01-16T05:30:52;3.00;99.90
45207;DHT22;30950;53.086;21.576;2023-01-16T05:33:22;2.80;99.90
45207;DHT22;30950;53.086;21.576;2023-01-16T05:35:49;2.80;99.90
45207;DHT22;30950;53.086;21.576;2023-01-16T05:38:17;2.80;99.90
45207;DHT22;30950;53.086;21.576;2023-01-16T05:40:45;2.80;99.90
45207;DHT22;30950;53.086;21.576;2023-01-16T05:43:13;2.80;99.90
45207;DHT22;30950;53.086;21.576;2023-01-16T05:45:41;2.80;99.90
45207;DHT22;30950;53.086;21.576;2023-01-16T05:48:08;2.80;99.90
45207;DHT22;30950;53.086;21.576;2023-01-16T05:50:35;2.70;99.90
45207;DHT22;30950;53.086;21.576;2023-01-16T05:53:03;2.80;99.90
45207;DHT22;30950;53.086;21.576;2023-01-16T05:55:30;2.70;99.90
45207;DHT22;30950;53.086;21.576;2023-01-16T05:57:57;2.70;99.90
45207;DHT22;30950;53.086;21.576;2023-01-16T06:00:25;2.70;99.90
45207;DHT22;30950;53.086;21.576;2023-01-16T06:02:52;2.60;99.90
45207;DHT22;30950;53.086;21.576;2023-01-16T06:05:19;2.60;99.90
45207;DHT22;30950;53.086;21.576;2023-01-16T06:07:46;2.60;99.90
45207;DHT22;30950;53.086;21.576;2023-01-16T06:10:14;2.60;99.90
45207;DHT22;30950;53.086;21.576;2023-01-16T06:12:42;2.60;99.90
45207;DHT22;30950;53.086;21.576;2023-01-16T06:15:10;2.60;99.90
45207;DHT22;30950;53.086;21.576;2023-01-16T06:17:37;2.50;99.90
45207;DHT22;30950;53.086;21.576;2023-01-16T06:20:05;2.60;99.90
45207;DHT22;30950;53.086;21.576;2023-01-16T06:22:32;2.50;99.90
45207;DHT22;30950;53.086;21.576;2023-01-16T06:24:59;2.50;99.90
45207;DHT22;30950;53.086;21.576;2023-01-16T06:27:27;2.50;99.90
45207;DHT22;30950;53.086;21.576;2023-01-16T06:29:54;2.50;99.90
45207;DHT22;30950;53.086;21.576;2023-01-16T06:32:21;2.50;99.90
45207;DHT22;30950;53.086;21.576;2023-01-16T06:34:49;2.50;99.90
45207;DHT22;30950;53.086;21.576;2023-01-16T06:37:16;2.50;99.90
45207;DHT22;30950;53.086;21.576;2023-01-16T06:39:43;2.50;99.90
45207;DHT22;30950;53.086;21.576;2023-01-16T06:42:10;2.50;99.90
45207;DHT22;30950;53.086;21.576;2023-01-16T06:44:38;2.50;99.90
45207;DHT22;30950;53.086;21.576;2023-01-16T06:47:05;2.50;99.90
45207;DHT22;30950;53.086;21.576;2023-01-16T06:49:33;2.50;99.90
45207;DHT22;30950;53.086;21.576;2023-01-16T06:52:01;2.50;99.90
45207;DHT22;30950;53.086;21.576;2023-01-16T06:54:28;3.30;99.90
45207;DHT22;30950;53.086;21.576;2023-01-16T06:56:56;2.40;99.90
45207;DHT22;30950;53.086;21.576;2023-01-16T06:59:23;2.40;99.90
45207;DHT22;30950;53.086;21.576;2023-01-16T07:01:50;2.40;99.90
45207;DHT22;30950;53.086;21.576;2023-01-16T07:04:18;3.40;99.90
45207;DHT22;30950;53.086;21.576;2023-01-16T07:06:45;2.50;99.90
45207;DHT22;30950;53.086;21.576;2023-01-16T07:09:12;2.50;99.90
45207;DHT22;30950;53.086;21.576;2023-01-16T07:11:39;2.50;99.90
45207;DHT22;30950;53.086;21.576;2023-01-16T07:14:08;2.40;99.90
45207;DHT22;30950;53.086;21.576;2023-01-16T07:16:53;2.40;99.90
45207;DHT22;30950;53.086;21.576;2023-01-16T07:19:39;2.40;99.90
45207;DHT22;30950;53.086;21.576;2023-01-16T07:22:26;2.40;99.90
45207;DHT22;30950;53.086;21.576;2023-01-16T07:25:09;2.40;99.90
45207;DHT22;30950;53.086;21.576;2023-01-16T07:27:38;2.40;99.90
45207;DHT22;30950;53.086;21.576;2023-01-16T07:30:07;2.40;99.90
45207;DHT22;30950;53.086;21.576;2023-01-16T07:32:35;2.40;99.90
45207;DHT22;30950;53.086;21.576;2023-01-16T07:35:03;2.40;99.90
45207;DHT22;30950;53.086;21.576;2023-01-16T07:37:30;2.50;99.90
45207;DHT22;30950;53.086;21.576;2023-01-16T07:39:58;3.30;99.90
45207;DHT22;30950;53.086;21.576;2023-01-16T07:42:25;2.50;99.90
45207;DHT22;30950;53.086;21.576;2023-01-16T07:44:52;2.50;99.90
45207;DHT22;30950;53.086;21.576;2023-01-16T07:47:19;2.50;99.90
45207;DHT22;30950;53.086;21.576;2023-01-16T07:49:47;2.60;99.90
45207;DHT22;30950;53.086;21.576;2023-01-16T07:52:14;2.60;99.90
45207;DHT22;30950;53.086;21.576;2023-01-16T07:54:44;2.60;99.90
45207;DHT22;30950;53.086;21.576;2023-01-16T07:57:11;2.60;99.90
45207;DHT22;30950;53.086;21.576;2023-01-16T07:59:38;2.60;99.90
45207;DHT22;30950;53.086;21.576;2023-01-16T08:02:05;2.70;99.90
45207;DHT22;30950;53.086;21.576;2023-01-16T08:04:33;2.80;99.90
45207;DHT22;30950;53.086;21.576;2023-01-16T08:07:00;2.80;99.90
45207;DHT22;30950;53.086;21.576;2023-01-16T08:09:27;2.90;99.90
45207;DHT22;30950;53.086;21.576;2023-01-16T08:11:55;3.30;99.90
45207;DHT22;30950;53.086;21.576;2023-01-16T08:14:22;2.80;99.90
45207;DHT22;30950;53.086;21.576;2023-01-16T08:16:49;2.90;99.90
45207;DHT22;30950;53.086;21.576;2023-01-16T08:19:17;3.80;99.90
45207;DHT22;30950;53.086;21.576;2023-01-16T08:21:44;2.90;99.90
45207;DHT22;30950;53.086;21.576;2023-01-16T08:24:12;3.00;99.90
45207;DHT22;30950;53.086;21.576;2023-01-16T08:26:41;3.00;99.90
45207;DHT22;30950;53.086;21.576;2023-01-16T08:29:10;3.00;99.90
45207;DHT22;30950;53.086;21.576;2023-01-16T08:31:37;3.00;99.90
45207;DHT22;30950;53.086;21.576;2023-01-16T08:34:05;3.00;99.90
45207;DHT22;30950;53.086;21.576;2023-01-16T08:36:32;3.10;99.90
45207;DHT22;30950;53.086;21.576;2023-01-16T08:38:59;3.10;99.90
45207;DHT22;30950;53.086;21.576;2023-01-16T08:41:27;3.20;99.90
45207;DHT22;30950;53.086;21.576;2023-01-16T08:44:27;3.20;99.90
45207;DHT22;30950;53.086;21.576;2023-01-16T08:47:18;3.30;99.90
45207;DHT22;30950;53.086;21.576;2023-01-16T08:50:09;3.30;99.90
45207;DHT22;30950;53.086;21.576;2023-01-16T08:52:55;3.40;99.90
45207;DHT22;30950;53.086;21.576;2023-01-16T08:55:23;3.40;99.90
45207;DHT22;30950;53.086;21.576;2023-01-16T08:57:50;3.40;99.90
45207;DHT22;30950;53.086;21.576;2023-01-16T09:00:17;3.50;99.90
45207;DHT22;30950;53.086;21.576;2023-01-16T09:02:46;3.50;99.90
45207;DHT22;30950;53.086;21.576;2023-01-16T09:05:14;3.50;99.90
45207;DHT22;30950;53.086;21.576;2023-01-16T09:07:41;3.60;99.90
45207;DHT22;30950;53.086;21.576;2023-01-16T09:10:09;3.60;99.90
45207;DHT22;30950;53.086;21.576;2023-01-16T09:12:37;3.70;99.90
45207;DHT22;30950;53.086;21.576;2023-01-16T09:15:24;3.70;99.90
45207;DHT22;30950;53.086;21.576;2023-01-16T09:17:52;3.70;99.90
45207;DHT22;30950;53.086;21.576;2023-01-16T09:20:19;4.90;99.90
45207;DHT22;30950;53.086;21.576;2023-01-16T09:22:46;3.80;99.90
45207;DHT22;30950;53.086;21.576;2023-01-16T09:25:14;3.80;99.90
45207;DHT22;30950;53.086;21.576;2023-01-16T09:27:43;3.80;99.90
45207;DHT22;30950;53.086;21.576;2023-01-16T09:30:13;3.90;99.90
45207;DHT22;30950;53.086;21.576;2023-01-16T09:32:40;3.90;99.90
45207;DHT22;30950;53.086;21.576;2023-01-16T09:35:10;3.90;99.90
45207;DHT22;30950;53.086;21.576;2023-01-16T09:37:37;3.90;99.90
45207;DHT22;30950;53.086;21.576;2023-01-16T09:40:05;4.00;99.90
45207;DHT22;30950;53.086;21.576;2023-01-16T09:43:02;4.00;99.90
45207;DHT22;30950;53.086;21.576;2023-01-16T09:45:56;4.00;99.90
45207;DHT22;30950;53.086;21.576;2023-01-16T09:48:31;4.00;99.90
45207;DHT22;30950;53.086;21.576;2023-01-16T09:51:06;4.00;99.90
45207;DHT22;30950;53.086;21.576;2023-01-16T09:53:45;4.00;99.90
45207;DHT22;30950;53.086;21.576;2023-01-16T09:56:56;4.10;99.90
45207;DHT22;30950;53.086;21.576;2023-01-16T09:59:54;4.10;99.90
45207;DHT22;30950;53.086;21.576;2023-01-16T10:02:30;4.10;99.90
45207;DHT22;30950;53.086;21.576;2023-01-16T10:05:02;4.10;99.90
45207;DHT22;30950;53.086;21.576;2023-01-16T10:15:41;4.30;99.90
45207;DHT22;30950;53.086;21.576;2023-01-16T10:18:25;4.30;99.90
45207;DHT22;30950;53.086;21.576;2023-01-16T10:21:22;4.40;99.90
45207;DHT22;30950;53.086;21.576;2023-01-16T10:23:53;4.30;99.90
45207;DHT22;30950;53.086;21.576;2023-01-16T10:26:29;4.40;99.90
45207;DHT22;30950;53.086;21.576;2023-01-16T10:31:48;4.50;99.90
45207;DHT22;30950;53.086;21.576;2023-01-16T10:34:21;4.70;99.90
45207;DHT22;30950;53.086;21.576;2023-01-16T10:36:54;4.80;99.90
45207;DHT22;30950;53.086;21.576;2023-01-16T10:39:31;4.80;99.90
45207;DHT22;30950;53.086;21.576;2023-01-16T10:42:13;4.90;99.90
45207;DHT22;30950;53.086;21.576;2023-01-16T10:47:50;5.00;99.90
45207;DHT22;30950;53.086;21.576;2023-01-16T10:50:37;5.10;99.90
45207;DHT22;30950;53.086;21.576;2023-01-16T10:53:07;5.20;99.90
45207;DHT22;30950;53.086;21.576;2023-01-16T10:55:39;5.30;99.90
45207;DHT22;30950;53.086;21.576;2023-01-16T10:58:27;5.40;99.90
45207;DHT22;30950;53.086;21.576;2023-01-16T11:00:59;5.50;99.90
45207;DHT22;30950;53.086;21.576;2023-01-16T11:04:06;5.50;99.90
45207;DHT22;30950;53.086;21.576;2023-01-16T11:06:28;5.50;99.90
45207;DHT22;30950;53.086;21.576;2023-01-16T11:11:30;5.50;99.90
45207;DHT22;30950;53.086;21.576;2023-01-16T11:14:22;5.40;99.90
45207;DHT22;30950;53.086;21.576;2023-01-16T11:17:39;5.30;99.90
45207;DHT22;30950;53.086;21.576;2023-01-16T11:23:00;5.20;99.90
45207;DHT22;30950;53.086;21.576;2023-01-16T11:25:31;5.20;99.90
45207;DHT22;30950;53.086;21.576;2023-01-16T11:28:02;5.20;99.90
45207;DHT22;30950;53.086;21.576;2023-01-16T11:30:33;5.20;99.90
45207;DHT22;30950;53.086;21.576;2023-01-16T11:33:03;5.20;99.90
45207;DHT22;30950;53.086;21.576;2023-01-16T11:35:36;5.30;99.90
45207;DHT22;30950;53.086;21.576;2023-01-16T11:38:05;5.30;99.90
45207;DHT22;30950;53.086;21.576;2023-01-16T11:40:44;5.30;99.90
45207;DHT22;30950;53.086;21.576;2023-01-16T11:43:18;5.30;99.90
45207;DHT22;30950;53.086;21.576;2023-01-16T11:48:59;5.40;99.90
45207;DHT22;30950;53.086;21.576;2023-01-16T11:51:30;5.40;99.90
45207;DHT22;30950;53.086;21.576;2023-01-16T11:53:59;5.40;99.90
45207;DHT22;30950;53.086;21.576;2023-01-16T11:56:46;5.40;99.90
45207;DHT22;30950;53.086;21.576;2023-01-16T11:59:35;5.50;99.90
45207;DHT22;30950;53.086;21.576;2023-01-16T12:02:19;5.50;99.90
45207;DHT22;30950;53.086;21.576;2023-01-16T12:05:22;5.50;99.90
45207;DHT22;30950;53.086;21.576;2023-01-16T12:14:05;5.50;99.90
45207;DHT22;30950;53.086;21.576;2023-01-16T12:22:56;5.40;99.90
45207;DHT22;30950;53.086;21.576;2023-01-16T12:25:39;5.50;99.90
45207;DHT22;30950;53.086;21.576;2023-01-16T12:31:09;6.80;99.90
45207;DHT22;30950;53.086;21.576;2023-01-16T12:36:49;5.30;99.90
45207;DHT22;30950;53.086;21.576;2023-01-16T12:48:06;5.20;99.90
45207;DHT22;30950;53.086;21.576;2023-01-16T12:50:58;5.20;99.90
45207;DHT22;30950;53.086;21.576;2023-01-16T13:01:41;5.60;99.90
45207;DHT22;30950;53.086;21.576;2023-01-16T13:06:53;5.10;99.90
45207;DHT22;30950;53.086;21.576;2023-01-16T13:09:36;5.10;99.90
45207;DHT22;30950;53.086;21.576;2023-01-16T13:12:23;5.10;99.90
45207;DHT22;30950;53.086;21.576;2023-01-16T13:15:14;5.10;99.90
45207;DHT22;30950;53.086;21.576;2023-01-16T13:20:25;5.10;99.90
45207;DHT22;30950;53.086;21.576;2023-01-16T13:23:17;5.20;99.90
45207;DHT22;30950;53.086;21.576;2023-01-16T13:25:53;5.10;99.90
45207;DHT22;30950;53.086;21.576;2023-01-16T13:31:19;5.10;99.90
45207;DHT22;30950;53.086;21.576;2023-01-16T13:33:50;5.10;99.90
45207;DHT22;30950;53.086;21.576;2023-01-16T13:39:39;5.10;99.90
45207;DHT22;30950;53.086;21.576;2023-01-16T13:42:11;5.00;99.90
45207;DHT22;30950;53.086;21.576;2023-01-16T13:44:45;5.00;99.90
45207;DHT22;30950;53.086;21.576;2023-01-16T13:47:36;5.00;99.90
45207;DHT22;30950;53.086;21.576;2023-01-16T13:52:42;5.00;99.90
45207;DHT22;30950;53.086;21.576;2023-01-16T13:55:27;5.00;99.90
45207;DHT22;30950;53.086;21.576;2023-01-16T14:00:39;5.00;99.90
45207;DHT22;30950;53.086;21.576;2023-01-16T14:03:22;5.00;99.90
45207;DHT22;30950;53.086;21.576;2023-01-16T14:05:51;6.60;99.90
45207;DHT22;30950;53.086;21.576;2023-01-16T14:12:00;5.00;99.90
45207;DHT22;30950;53.086;21.576;2023-01-16T14:14:33;4.90;99.90
45207;DHT22;30950;53.086;21.576;2023-01-16T14:17:21;5.00;99.90
45207;DHT22;30950;53.086;21.576;2023-01-16T14:22:21;5.00;99.90
45207;DHT22;30950;53.086;21.576;2023-01-16T14:24:53;4.90;99.90
45207;DHT22;30950;53.086;21.576;2023-01-16T14:27:24;5.00;99.90
45207;DHT22;30950;53.086;21.576;2023-01-16T14:30:03;5.00;99.90
45207;DHT22;30950;53.086;21.576;2023-01-16T14:32:32;4.90;99.90
45207;DHT22;30950;53.086;21.576;2023-01-16T14:35:04;4.90;99.90
45207;DHT22;30950;53.086;21.576;2023-01-16T14:37:39;4.90;99.90
45207;DHT22;30950;53.086;21.576;2023-01-16T14:40:28;4.90;99.90
45207;DHT22;30950;53.086;21.576;2023-01-16T14:43:25;4.90;99.90
45207;DHT22;30950;53.086;21.576;2023-01-16T14:55:31;4.80;99.90
45207;DHT22;30950;53.086;21.576;2023-01-16T14:58:00;4.70;99.90
45207;DHT22;30950;53.086;21.576;2023-01-16T15:00:34;4.70;99.90
45207;DHT22;30950;53.086;21.576;2023-01-16T15:03:16;4.60;99.90
45207;DHT22;30950;53.086;21.576;2023-01-16T15:05:52;4.60;99.90
45207;DHT22;30950;53.086;21.576;2023-01-16T15:08:34;4.50;99.90
45207;DHT22;30950;53.086;21.576;2023-01-16T15:11:24;4.50;99.90
45207;DHT22;30950;53.086;21.576;2023-01-16T15:17:16;4.40;99.90
45207;DHT22;30950;53.086;21.576;2023-01-16T15:23:25;4.40;99.90
45207;DHT22;30950;53.086;21.576;2023-01-16T15:29:08;4.30;99.90
45207;DHT22;30950;53.086;21.576;2023-01-16T15:31:39;4.30;99.90
45207;DHT22;30950;53.086;21.576;2023-01-16T15:36:47;4.30;99.90
45207;DHT22;30950;53.086;21.576;2023-01-16T15:41:55;4.30;99.90
45207;DHT22;30950;53.086;21.576;2023-01-16T15:44:42;4.30;99.90
45207;DHT22;30950;53.086;21.576;2023-01-16T15:50:30;4.30;99.90
45207;DHT22;30950;53.086;21.576;2023-01-16T15:53:00;4.20;99.90
45207;DHT22;30950;53.086;21.576;2023-01-16T15:55:36;4.20;99.90
45207;DHT22;30950;53.086;21.576;2023-01-16T15:58:05;4.20;99.90
45207;DHT22;30950;53.086;21.576;2023-01-16T16:00:40;4.20;99.90
45207;DHT22;30950;53.086;21.576;2023-01-16T16:03:18;4.20;99.90
45207;DHT22;30950;53.086;21.576;2023-01-16T16:05:59;4.50;99.90
45207;DHT22;30950;53.086;21.576;2023-01-16T16:08:44;4.20;99.90
45207;DHT22;30950;53.086;21.576;2023-01-16T16:11:21;4.20;99.90
45207;DHT22;30950;53.086;21.576;2023-01-16T16:14:22;4.20;99.90
45207;DHT22;30950;53.086;21.576;2023-01-16T16:17:31;4.30;99.90
45207;DHT22;30950;53.086;21.576;2023-01-16T16:28:41;4.20;99.90
45207;DHT22;30950;53.086;21.576;2023-01-16T16:31:49;5.80;99.90
45207;DHT22;30950;53.086;21.576;2023-01-16T16:34:21;4.20;99.90
45207;DHT22;30950;53.086;21.576;2023-01-16T16:36:58;4.20;99.90
45207;DHT22;30950;53.086;21.576;2023-01-16T16:47:37;4.10;99.90
45207;DHT22;30950;53.086;21.576;2023-01-16T16:52:48;4.20;99.90
45207;DHT22;30950;53.086;21.576;2023-01-16T16:55:35;4.10;99.90
45207;DHT22;30950;53.086;21.576;2023-01-16T16:58:17;4.10;99.90
45207;DHT22;30950;53.086;21.576;2023-01-16T17:00:46;4.10;99.90
45207;DHT22;30950;53.086;21.576;2023-01-16T17:03:19;4.10;99.90
45207;DHT22;30950;53.086;21.576;2023-01-16T17:05:49;4.10;99.90
45207;DHT22;30950;53.086;21.576;2023-01-16T17:08:24;4.10;99.90
45207;DHT22;30950;53.086;21.576;2023-01-16T17:10:55;4.70;99.90
45207;DHT22;30950;53.086;21.576;2023-01-16T17:13:23;4.20;99.90
45207;DHT22;30950;53.086;21.576;2023-01-16T17:15:55;4.10;99.90
45207;DHT22;30950;53.086;21.576;2023-01-16T17:18:23;4.10;99.90
45207;DHT22;30950;53.086;21.576;2023-01-16T17:20:52;4.10;99.90
45207;DHT22;30950;53.086;21.576;2023-01-16T17:23:20;4.10;99.90
45207;DHT22;30950;53.086;21.576;2023-01-16T17:25:49;4.10;99.90
45207;DHT22;30950;53.086;21.576;2023-01-16T17:28:16;4.10;99.90
45207;DHT22;30950;53.086;21.576;2023-01-16T17:30:44;4.10;99.90
45207;DHT22;30950;53.086;21.576;2023-01-16T17:33:16;4.10;99.90
45207;DHT22;30950;53.086;21.576;2023-01-16T17:35:46;4.10;99.90
45207;DHT22;30950;53.086;21.576;2023-01-16T17:38:16;4.10;99.90
45207;DHT22;30950;53.086;21.576;2023-01-16T17:40:45;4.10;99.90
45207;DHT22;30950;53.086;21.576;2023-01-16T17:43:17;4.10;99.90
45207;DHT22;30950;53.086;21.576;2023-01-16T17:46:10;4.30;99.90
45207;DHT22;30950;53.086;21.576;2023-01-16T17:48:39;4.10;99.90
45207;DHT22;30950;53.086;21.576;2023-01-16T17:51:07;4.10;99.90
45207;DHT22;30950;53.086;21.576;2023-01-16T17:53:35;4.80;99.90
45207;DHT22;30950;53.086;21.576;2023-01-16T17:56:04;4.10;99.90
45207;DHT22;30950;53.086;21.576;2023-01-16T17:58:34;4.10;99.90
45207;DHT22;30950;53.086;21.576;2023-01-16T18:01:17;4.10;99.90
45207;DHT22;30950;53.086;21.576;2023-01-16T18:03:47;4.10;99.90
45207;DHT22;30950;53.086;21.576;2023-01-16T18:06:17;4.10;99.90
45207;DHT22;30950;53.086;21.576;2023-01-16T18:08:47;5.20;99.90
45207;DHT22;30950;53.086;21.576;2023-01-16T18:11:15;4.10;99.90
45207;DHT22;30950;53.086;21.576;2023-01-16T18:14:11;4.10;99.90
45207;DHT22;30950;53.086;21.576;2023-01-16T18:16:59;4.10;99.90
45207;DHT22;30950;53.086;21.576;2023-01-16T18:19:45;4.10;99.90
45207;DHT22;30950;53.086;21.576;2023-01-16T18:22:13;5.20;99.90
45207;DHT22;30950;53.086;21.576;2023-01-16T18:24:41;4.10;99.90
45207;DHT22;30950;53.086;21.576;2023-01-16T18:27:11;4.10;99.90
45207;DHT22;30950;53.086;21.576;2023-01-16T18:29:40;4.00;99.90
45207;DHT22;30950;53.086;21.576;2023-01-16T18:32:08;4.00;99.90
45207;DHT22;30950;53.086;21.576;2023-01-16T18:40:12;4.10;99.90
45207;DHT22;30950;53.086;21.576;2023-01-16T18:43:00;4.10;99.90
45207;DHT22;30950;53.086;21.576;2023-01-16T18:45:46;4.70;99.90
45207;DHT22;30950;53.086;21.576;2023-01-16T18:48:32;4.10;99.90
45207;DHT22;30950;53.086;21.576;2023-01-16T18:51:19;4.10;99.90
45207;DHT22;30950;53.086;21.576;2023-01-16T18:54:31;4.10;99.90
45207;DHT22;30950;53.086;21.576;2023-01-16T18:57:23;4.10;99.90
45207;DHT22;30950;53.086;21.576;2023-01-16T19:00:16;4.20;99.90
45207;DHT22;30950;53.086;21.576;2023-01-16T19:03:02;4.20;99.90
45207;DHT22;30950;53.086;21.576;2023-01-16T19:05:30;4.20;99.90
45207;DHT22;30950;53.086;21.576;2023-01-16T19:08:00;4.20;99.90
45207;DHT22;30950;53.086;21.576;2023-01-16T19:10:32;4.20;99.90